Hauptseite
METAR-TAF:

METAR-TAF

Flughäfen :

Fliegerhorst Lechfeld

Lechfeld, Deutschland

Breite: 48-11N, Länge: 010-52E, Höhe: 555 m

Beobachtung

Neuester Wetterbericht von vor 1 Stunde und 2 Minuten, um 18:20 UTC
Wind 3 kt aus Ost
Temperatur 19°C
Luftfeuchtigkeit 78%
Luftdruck 1022 hPa
Sichtweite 10 km oder mehr
Leicht bewölkt in der Höhe von 25000 ft

METAR: ETSL 191820Z 09003KT 9999 FEW250 19/15 Q1022 BLU+

Zeit: 21:22 (19:22 UTC)

Prognose

Neuester Wetterbericht von vor 4 Stunden und 2 Minuten, um 15:20 UTC
Gültige Prognose vom 19 um 15 UTC bis 19 um 23 UTC
Wind 5 kt aus Süd/Südwest
Sichtweite: 1520 m
Leicht bewölkt in der Höhe von 4000 ft

TAF: ETSL 191520Z 1915/1923 21005KT 9999 NSW FEW040 CANCEL 1520 BY ETGL

Wetterbeobachtungen und Prognosen von mehr als 4000 Flughäfen (METAR und TAF Bericht).

Die verfügbaren Stationen werden durch gelbe und rote Markierungen auf der Karte dargestellt.

Führen Sie die Maus auf sie, um den Namen der Station zu sehen.

Darauf klicken, um die Beobachtung von Wetterbeobachtungen und Prognosen zu sehen.

Um die Karte zu ändern : klicken Sie auf den grünen Tasten mit einem schwarzen Kreuz Zum Vergrößern, auf den grünen Button mit einem Gedankenstrich zu verkleinern, oder auf die grünen Pfeile für benachbarte Karten.


METAR-TAF: